sensor_id;sensor_type;location;lat;lon;timestamp;temperature;humidity
4509;DHT22;2267;48.816;9.230;2023-04-19T00:00:43;13.00;99.90
4509;DHT22;2267;48.816;9.230;2023-04-19T00:03:10;13.00;99.90
4509;DHT22;2267;48.816;9.230;2023-04-19T00:05:37;12.90;99.90
4509;DHT22;2267;48.816;9.230;2023-04-19T00:08:07;12.90;99.90
4509;DHT22;2267;48.816;9.230;2023-04-19T00:10:34;12.90;99.90
4509;DHT22;2267;48.816;9.230;2023-04-19T00:13:05;12.90;99.90
4509;DHT22;2267;48.816;9.230;2023-04-19T00:15:32;12.90;99.90
4509;DHT22;2267;48.816;9.230;2023-04-19T00:18:20;12.90;99.90
4509;DHT22;2267;48.816;9.230;2023-04-19T00:20:47;12.90;99.90
4509;DHT22;2267;48.816;9.230;2023-04-19T00:23:14;12.90;99.90
4509;DHT22;2267;48.816;9.230;2023-04-19T00:25:41;12.90;99.90
4509;DHT22;2267;48.816;9.230;2023-04-19T00:28:07;12.90;99.90
4509;DHT22;2267;48.816;9.230;2023-04-19T00:30:34;12.90;99.90
4509;DHT22;2267;48.816;9.230;2023-04-19T00:33:01;12.90;99.90
4509;DHT22;2267;48.816;9.230;2023-04-19T00:35:28;12.90;99.90
4509;DHT22;2267;48.816;9.230;2023-04-19T00:37:55;12.90;99.90
4509;DHT22;2267;48.816;9.230;2023-04-19T00:40:21;12.90;99.90
4509;DHT22;2267;48.816;9.230;2023-04-19T00:42:48;12.90;99.90
4509;DHT22;2267;48.816;9.230;2023-04-19T00:45:15;12.90;99.90
4509;DHT22;2267;48.816;9.230;2023-04-19T00:47:42;12.90;99.90
4509;DHT22;2267;48.816;9.230;2023-04-19T00:50:09;12.80;99.90
4509;DHT22;2267;48.816;9.230;2023-04-19T00:52:36;12.80;99.90
4509;DHT22;2267;48.816;9.230;2023-04-19T00:55:04;12.80;99.90
4509;DHT22;2267;48.816;9.230;2023-04-19T00:57:31;12.80;99.90
4509;DHT22;2267;48.816;9.230;2023-04-19T00:59:57;12.80;99.90
4509;DHT22;2267;48.816;9.230;2023-04-19T01:02:24;12.80;99.90
4509;DHT22;2267;48.816;9.230;2023-04-19T01:04:54;12.80;99.90
4509;DHT22;2267;48.816;9.230;2023-04-19T01:07:21;12.80;99.90
4509;DHT22;2267;48.816;9.230;2023-04-19T01:09:48;12.80;99.90
4509;DHT22;2267;48.816;9.230;2023-04-19T01:12:14;12.80;99.90
4509;DHT22;2267;48.816;9.230;2023-04-19T01:14:41;12.80;99.90
4509;DHT22;2267;48.816;9.230;2023-04-19T01:17:08;12.80;99.90
4509;DHT22;2267;48.816;9.230;2023-04-19T01:19:35;12.80;99.90
4509;DHT22;2267;48.816;9.230;2023-04-19T01:22:03;12.80;99.90
4509;DHT22;2267;48.816;9.230;2023-04-19T01:24:30;12.70;99.90
4509;DHT22;2267;48.816;9.230;2023-04-19T01:26:57;12.70;99.90
4509;DHT22;2267;48.816;9.230;2023-04-19T01:29:24;12.70;99.90
4509;DHT22;2267;48.816;9.230;2023-04-19T01:31:50;12.70;99.90
4509;DHT22;2267;48.816;9.230;2023-04-19T01:34:19;12.70;99.90
4509;DHT22;2267;48.816;9.230;2023-04-19T01:36:48;12.70;99.90
4509;DHT22;2267;48.816;9.230;2023-04-19T01:39:15;12.70;99.90
4509;DHT22;2267;48.816;9.230;2023-04-19T01:41:42;12.70;99.90
4509;DHT22;2267;48.816;9.230;2023-04-19T01:44:09;12.70;99.90
4509;DHT22;2267;48.816;9.230;2023-04-19T01:46:36;12.70;99.90
4509;DHT22;2267;48.816;9.230;2023-04-19T01:49:04;12.70;99.90
4509;DHT22;2267;48.816;9.230;2023-04-19T01:51:31;12.70;99.90
4509;DHT22;2267;48.816;9.230;2023-04-19T01:53:58;12.70;99.90
4509;DHT22;2267;48.816;9.230;2023-04-19T01:56:25;12.70;99.90
4509;DHT22;2267;48.816;9.230;2023-04-19T01:58:51;12.60;99.90
4509;DHT22;2267;48.816;9.230;2023-04-19T02:01:18;12.60;99.90
4509;DHT22;2267;48.816;9.230;2023-04-19T02:03:45;12.60;99.90
4509;DHT22;2267;48.816;9.230;2023-04-19T02:06:13;12.60;99.90
4509;DHT22;2267;48.816;9.230;2023-04-19T02:08:40;12.60;99.90
4509;DHT22;2267;48.816;9.230;2023-04-19T02:11:08;12.60;99.90
4509;DHT22;2267;48.816;9.230;2023-04-19T02:13:36;12.60;99.90
4509;DHT22;2267;48.816;9.230;2023-04-19T02:16:03;12.60;99.90
4509;DHT22;2267;48.816;9.230;2023-04-19T02:18:31;12.60;99.90
4509;DHT22;2267;48.816;9.230;2023-04-19T02:20:58;12.60;99.90
4509;DHT22;2267;48.816;9.230;2023-04-19T02:23:25;12.60;99.90
4509;DHT22;2267;48.816;9.230;2023-04-19T02:25:52;12.50;99.90
4509;DHT22;2267;48.816;9.230;2023-04-19T02:28:19;12.60;99.90
4509;DHT22;2267;48.816;9.230;2023-04-19T02:30:46;12.60;99.90
4509;DHT22;2267;48.816;9.230;2023-04-19T02:33:14;12.50;99.90
4509;DHT22;2267;48.816;9.230;2023-04-19T02:35:41;12.50;99.90
4509;DHT22;2267;48.816;9.230;2023-04-19T02:38:07;12.50;99.90
4509;DHT22;2267;48.816;9.230;2023-04-19T02:40:34;12.50;99.90
4509;DHT22;2267;48.816;9.230;2023-04-19T02:43:02;12.50;99.90
4509;DHT22;2267;48.816;9.230;2023-04-19T02:45:29;12.50;99.90
4509;DHT22;2267;48.816;9.230;2023-04-19T02:47:57;12.50;99.90
4509;DHT22;2267;48.816;9.230;2023-04-19T02:50:26;12.50;99.90
4509;DHT22;2267;48.816;9.230;2023-04-19T02:52:52;12.50;99.90
4509;DHT22;2267;48.816;9.230;2023-04-19T02:55:19;12.40;99.90
4509;DHT22;2267;48.816;9.230;2023-04-19T02:57:46;12.50;99.90
4509;DHT22;2267;48.816;9.230;2023-04-19T03:00:13;12.40;99.90
4509;DHT22;2267;48.816;9.230;2023-04-19T03:02:42;12.50;99.90
4509;DHT22;2267;48.816;9.230;2023-04-19T03:05:09;12.40;99.90
4509;DHT22;2267;48.816;9.230;2023-04-19T03:07:36;12.40;99.90
4509;DHT22;2267;48.816;9.230;2023-04-19T03:10:03;12.40;99.90
4509;DHT22;2267;48.816;9.230;2023-04-19T03:12:30;12.40;99.90
4509;DHT22;2267;48.816;9.230;2023-04-19T03:14:57;12.40;99.90
4509;DHT22;2267;48.816;9.230;2023-04-19T03:17:23;12.40;99.90
4509;DHT22;2267;48.816;9.230;2023-04-19T03:19:50;12.40;99.90
4509;DHT22;2267;48.816;9.230;2023-04-19T03:22:18;12.40;99.90
4509;DHT22;2267;48.816;9.230;2023-04-19T03:24:44;12.40;99.90
4509;DHT22;2267;48.816;9.230;2023-04-19T03:27:11;12.40;99.90
4509;DHT22;2267;48.816;9.230;2023-04-19T03:29:38;12.40;99.90
4509;DHT22;2267;48.816;9.230;2023-04-19T03:32:06;12.40;99.90
4509;DHT22;2267;48.816;9.230;2023-04-19T03:34:33;12.40;99.90
4509;DHT22;2267;48.816;9.230;2023-04-19T03:36:59;12.40;99.90
4509;DHT22;2267;48.816;9.230;2023-04-19T03:39:26;12.40;99.90
4509;DHT22;2267;48.816;9.230;2023-04-19T03:41:53;12.40;99.90
4509;DHT22;2267;48.816;9.230;2023-04-19T03:44:20;12.40;99.90
4509;DHT22;2267;48.816;9.230;2023-04-19T03:46:47;12.40;99.90
4509;DHT22;2267;48.816;9.230;2023-04-19T03:49:14;12.30;99.90
4509;DHT22;2267;48.816;9.230;2023-04-19T03:51:41;12.30;99.90
4509;DHT22;2267;48.816;9.230;2023-04-19T03:54:08;12.30;99.90
4509;DHT22;2267;48.816;9.230;2023-04-19T03:56:34;12.30;99.90
4509;DHT22;2267;48.816;9.230;2023-04-19T03:59:01;12.30;99.90
4509;DHT22;2267;48.816;9.230;2023-04-19T04:01:28;12.30;99.90
4509;DHT22;2267;48.816;9.230;2023-04-19T04:03:55;12.30;99.90
4509;DHT22;2267;48.816;9.230;2023-04-19T04:06:22;12.30;99.90
4509;DHT22;2267;48.816;9.230;2023-04-19T04:08:48;12.30;99.90
4509;DHT22;2267;48.816;9.230;2023-04-19T04:11:15;12.20;99.90
4509;DHT22;2267;48.816;9.230;2023-04-19T04:13:42;12.20;99.90
4509;DHT22;2267;48.816;9.230;2023-04-19T04:16:09;12.20;99.90
4509;DHT22;2267;48.816;9.230;2023-04-19T04:18:36;12.20;99.90
4509;DHT22;2267;48.816;9.230;2023-04-19T04:21:03;12.20;99.90
4509;DHT22;2267;48.816;9.230;2023-04-19T04:23:30;12.20;99.90
4509;DHT22;2267;48.816;9.230;2023-04-19T04:25:57;12.20;99.90
4509;DHT22;2267;48.816;9.230;2023-04-19T04:28:27;12.20;99.90
4509;DHT22;2267;48.816;9.230;2023-04-19T04:30:55;12.10;99.90
4509;DHT22;2267;48.816;9.230;2023-04-19T04:33:26;12.10;99.90
4509;DHT22;2267;48.816;9.230;2023-04-19T04:35:54;12.10;99.90
4509;DHT22;2267;48.816;9.230;2023-04-19T04:38:21;12.10;99.90
4509;DHT22;2267;48.816;9.230;2023-04-19T04:40:51;12.10;99.90
4509;DHT22;2267;48.816;9.230;2023-04-19T04:43:26;12.10;99.90
4509;DHT22;2267;48.816;9.230;2023-04-19T04:45:55;12.10;99.90
4509;DHT22;2267;48.816;9.230;2023-04-19T04:48:24;12.10;99.90
4509;DHT22;2267;48.816;9.230;2023-04-19T04:50:50;12.10;99.90
4509;DHT22;2267;48.816;9.230;2023-04-19T04:53:17;12.00;99.90
4509;DHT22;2267;48.816;9.230;2023-04-19T04:55:44;12.00;99.90
4509;DHT22;2267;48.816;9.230;2023-04-19T04:58:11;12.00;99.90
4509;DHT22;2267;48.816;9.230;2023-04-19T05:00:38;12.00;99.90
4509;DHT22;2267;48.816;9.230;2023-04-19T05:03:05;12.00;99.90
4509;DHT22;2267;48.816;9.230;2023-04-19T05:05:32;12.00;99.90
4509;DHT22;2267;48.816;9.230;2023-04-19T05:07:59;12.00;99.90
4509;DHT22;2267;48.816;9.230;2023-04-19T05:10:26;12.10;99.90
4509;DHT22;2267;48.816;9.230;2023-04-19T05:12:53;12.00;99.90
4509;DHT22;2267;48.816;9.230;2023-04-19T05:15:20;12.00;99.90
4509;DHT22;2267;48.816;9.230;2023-04-19T05:17:47;12.00;99.90
4509;DHT22;2267;48.816;9.230;2023-04-19T05:20:13;12.00;99.90
4509;DHT22;2267;48.816;9.230;2023-04-19T05:22:40;12.00;99.90
4509;DHT22;2267;48.816;9.230;2023-04-19T05:25:09;12.00;99.90
4509;DHT22;2267;48.816;9.230;2023-04-19T05:27:36;12.00;99.90
4509;DHT22;2267;48.816;9.230;2023-04-19T05:30:03;12.00;99.90
4509;DHT22;2267;48.816;9.230;2023-04-19T05:32:31;12.00;99.90
4509;DHT22;2267;48.816;9.230;2023-04-19T05:34:58;12.00;99.90
4509;DHT22;2267;48.816;9.230;2023-04-19T05:37:25;12.10;99.90
4509;DHT22;2267;48.816;9.230;2023-04-19T05:39:51;12.10;99.90
4509;DHT22;2267;48.816;9.230;2023-04-19T05:42:18;12.10;99.90
4509;DHT22;2267;48.816;9.230;2023-04-19T05:44:45;12.10;99.90
4509;DHT22;2267;48.816;9.230;2023-04-19T05:47:12;12.10;99.90
4509;DHT22;2267;48.816;9.230;2023-04-19T05:49:39;12.10;99.90
4509;DHT22;2267;48.816;9.230;2023-04-19T05:52:08;12.10;99.90
4509;DHT22;2267;48.816;9.230;2023-04-19T05:54:34;12.10;99.90
4509;DHT22;2267;48.816;9.230;2023-04-19T05:57:02;12.10;99.90
4509;DHT22;2267;48.816;9.230;2023-04-19T05:59:29;12.10;99.90
4509;DHT22;2267;48.816;9.230;2023-04-19T06:01:56;12.10;99.90
4509;DHT22;2267;48.816;9.230;2023-04-19T06:04:23;12.10;99.90
4509;DHT22;2267;48.816;9.230;2023-04-19T06:06:50;12.10;99.90
4509;DHT22;2267;48.816;9.230;2023-04-19T06:09:17;12.10;99.90
4509;DHT22;2267;48.816;9.230;2023-04-19T06:11:44;12.10;99.90
4509;DHT22;2267;48.816;9.230;2023-04-19T06:14:16;12.10;99.90
4509;DHT22;2267;48.816;9.230;2023-04-19T06:16:44;12.10;99.90
4509;DHT22;2267;48.816;9.230;2023-04-19T06:19:11;12.20;99.90
4509;DHT22;2267;48.816;9.230;2023-04-19T06:21:38;12.10;99.90
4509;DHT22;2267;48.816;9.230;2023-04-19T06:24:05;12.20;99.90
4509;DHT22;2267;48.816;9.230;2023-04-19T06:26:32;12.20;99.90
4509;DHT22;2267;48.816;9.230;2023-04-19T06:28:59;12.20;99.90
4509;DHT22;2267;48.816;9.230;2023-04-19T06:31:26;12.20;99.90
4509;DHT22;2267;48.816;9.230;2023-04-19T06:33:53;12.20;99.90
4509;DHT22;2267;48.816;9.230;2023-04-19T06:36:20;12.30;99.90
4509;DHT22;2267;48.816;9.230;2023-04-19T06:38:47;12.30;99.90
4509;DHT22;2267;48.816;9.230;2023-04-19T06:41:15;12.30;99.90
4509;DHT22;2267;48.816;9.230;2023-04-19T06:43:42;12.30;99.90
4509;DHT22;2267;48.816;9.230;2023-04-19T06:46:10;12.30;99.90
4509;DHT22;2267;48.816;9.230;2023-04-19T06:48:39;12.30;99.90
4509;DHT22;2267;48.816;9.230;2023-04-19T06:51:06;12.40;99.90
4509;DHT22;2267;48.816;9.230;2023-04-19T06:53:33;12.40;99.90
4509;DHT22;2267;48.816;9.230;2023-04-19T06:56:02;12.40;99.90
4509;DHT22;2267;48.816;9.230;2023-04-19T06:58:32;12.50;99.90
4509;DHT22;2267;48.816;9.230;2023-04-19T07:01:02;12.50;99.90
4509;DHT22;2267;48.816;9.230;2023-04-19T07:03:30;12.50;99.90
4509;DHT22;2267;48.816;9.230;2023-04-19T07:05:57;12.60;99.90
4509;DHT22;2267;48.816;9.230;2023-04-19T07:08:25;12.60;99.90
4509;DHT22;2267;48.816;9.230;2023-04-19T07:11:08;12.60;99.90
4509;DHT22;2267;48.816;9.230;2023-04-19T07:13:35;12.60;99.90
4509;DHT22;2267;48.816;9.230;2023-04-19T07:16:03;12.60;99.90
4509;DHT22;2267;48.816;9.230;2023-04-19T07:18:31;12.70;99.90
4509;DHT22;2267;48.816;9.230;2023-04-19T07:20:58;12.70;99.90
4509;DHT22;2267;48.816;9.230;2023-04-19T07:23:25;12.70;99.90
4509;DHT22;2267;48.816;9.230;2023-04-19T07:25:51;12.80;99.90
4509;DHT22;2267;48.816;9.230;2023-04-19T07:28:18;12.80;99.90
4509;DHT22;2267;48.816;9.230;2023-04-19T07:30:45;12.90;99.90
4509;DHT22;2267;48.816;9.230;2023-04-19T07:33:12;12.90;99.90
4509;DHT22;2267;48.816;9.230;2023-04-19T07:35:39;13.00;99.90
4509;DHT22;2267;48.816;9.230;2023-04-19T07:38:05;13.00;99.90
4509;DHT22;2267;48.816;9.230;2023-04-19T07:40:32;13.00;99.90
4509;DHT22;2267;48.816;9.230;2023-04-19T07:42:59;13.10;99.90
4509;DHT22;2267;48.816;9.230;2023-04-19T07:45:26;13.10;99.90
4509;DHT22;2267;48.816;9.230;2023-04-19T07:47:53;13.10;99.90
4509;DHT22;2267;48.816;9.230;2023-04-19T07:50:20;13.10;99.90
4509;DHT22;2267;48.816;9.230;2023-04-19T07:52:48;13.20;99.90
4509;DHT22;2267;48.816;9.230;2023-04-19T07:55:15;13.20;99.90
4509;DHT22;2267;48.816;9.230;2023-04-19T07:57:42;13.20;99.90
4509;DHT22;2267;48.816;9.230;2023-04-19T08:00:17;13.30;99.90
4509;DHT22;2267;48.816;9.230;2023-04-19T08:02:44;13.30;99.90
4509;DHT22;2267;48.816;9.230;2023-04-19T08:05:16;13.30;99.90
4509;DHT22;2267;48.816;9.230;2023-04-19T08:07:44;13.30;99.90
4509;DHT22;2267;48.816;9.230;2023-04-19T08:10:11;13.30;99.90
4509;DHT22;2267;48.816;9.230;2023-04-19T08:12:38;13.30;99.90
4509;DHT22;2267;48.816;9.230;2023-04-19T08:15:25;13.30;99.90
4509;DHT22;2267;48.816;9.230;2023-04-19T08:17:55;13.30;99.90
4509;DHT22;2267;48.816;9.230;2023-04-19T08:20:22;13.40;99.90
4509;DHT22;2267;48.816;9.230;2023-04-19T08:22:49;13.40;99.90
4509;DHT22;2267;48.816;9.230;2023-04-19T08:25:15;13.50;99.90
4509;DHT22;2267;48.816;9.230;2023-04-19T08:27:42;13.50;99.90
4509;DHT22;2267;48.816;9.230;2023-04-19T08:30:09;13.50;99.90
4509;DHT22;2267;48.816;9.230;2023-04-19T08:32:36;13.50;99.90
4509;DHT22;2267;48.816;9.230;2023-04-19T08:35:04;13.50;99.90
4509;DHT22;2267;48.816;9.230;2023-04-19T08:37:31;13.60;99.90
4509;DHT22;2267;48.816;9.230;2023-04-19T08:39:58;13.60;99.90
4509;DHT22;2267;48.816;9.230;2023-04-19T08:42:25;13.60;99.90
4509;DHT22;2267;48.816;9.230;2023-04-19T08:45:03;13.50;99.90
4509;DHT22;2267;48.816;9.230;2023-04-19T08:47:36;13.50;99.90
4509;DHT22;2267;48.816;9.230;2023-04-19T08:50:22;13.40;99.90
4509;DHT22;2267;48.816;9.230;2023-04-19T08:53:00;13.40;99.90
4509;DHT22;2267;48.816;9.230;2023-04-19T08:55:46;13.40;99.90
4509;DHT22;2267;48.816;9.230;2023-04-19T08:58:34;13.40;99.90
4509;DHT22;2267;48.816;9.230;2023-04-19T09:01:21;13.50;99.90
4509;DHT22;2267;48.816;9.230;2023-04-19T09:04:02;13.50;99.90
4509;DHT22;2267;48.816;9.230;2023-04-19T09:06:52;13.60;99.90
4509;DHT22;2267;48.816;9.230;2023-04-19T09:09:23;13.60;99.90
4509;DHT22;2267;48.816;9.230;2023-04-19T09:11:53;13.60;99.90
4509;DHT22;2267;48.816;9.230;2023-04-19T09:14:21;13.70;99.90
4509;DHT22;2267;48.816;9.230;2023-04-19T09:16:48;13.80;99.90
4509;DHT22;2267;48.816;9.230;2023-04-19T09:19:17;13.80;99.90
4509;DHT22;2267;48.816;9.230;2023-04-19T09:21:50;13.80;99.90
4509;DHT22;2267;48.816;9.230;2023-04-19T09:24:36;13.80;99.90
4509;DHT22;2267;48.816;9.230;2023-04-19T09:27:26;13.90;99.90
4509;DHT22;2267;48.816;9.230;2023-04-19T09:30:00;13.90;99.90
4509;DHT22;2267;48.816;9.230;2023-04-19T09:32:28;13.90;99.90
4509;DHT22;2267;48.816;9.230;2023-04-19T09:34:58;13.90;99.90
4509;DHT22;2267;48.816;9.230;2023-04-19T09:37:25;14.00;99.90
4509;DHT22;2267;48.816;9.230;2023-04-19T09:40:23;14.10;99.90
4509;DHT22;2267;48.816;9.230;2023-04-19T09:42:50;14.30;99.90
4509;DHT22;2267;48.816;9.230;2023-04-19T09:45:20;14.40;99.90
4509;DHT22;2267;48.816;9.230;2023-04-19T09:48:04;14.50;99.90
4509;DHT22;2267;48.816;9.230;2023-04-19T09:50:34;14.60;99.90
4509;DHT22;2267;48.816;9.230;2023-04-19T09:53:20;14.60;99.90
4509;DHT22;2267;48.816;9.230;2023-04-19T09:55:46;14.70;99.90
4509;DHT22;2267;48.816;9.230;2023-04-19T09:58:27;14.60;99.90
4509;DHT22;2267;48.816;9.230;2023-04-19T10:01:03;14.60;99.90
4509;DHT22;2267;48.816;9.230;2023-04-19T10:03:33;14.60;99.90
4509;DHT22;2267;48.816;9.230;2023-04-19T10:06:01;14.70;99.90
4509;DHT22;2267;48.816;9.230;2023-04-19T10:08:40;14.80;99.90
4509;DHT22;2267;48.816;9.230;2023-04-19T10:11:06;14.90;99.90
4509;DHT22;2267;48.816;9.230;2023-04-19T10:13:33;14.90;99.90
4509;DHT22;2267;48.816;9.230;2023-04-19T10:16:00;14.90;99.80
4509;DHT22;2267;48.816;9.230;2023-04-19T10:18:44;14.90;98.90
4509;DHT22;2267;48.816;9.230;2023-04-19T10:21:11;14.90;99.30
4509;DHT22;2267;48.816;9.230;2023-04-19T10:23:39;14.90;98.70
4509;DHT22;2267;48.816;9.230;2023-04-19T10:26:07;14.80;98.80
4509;DHT22;2267;48.816;9.230;2023-04-19T10:28:35;14.80;98.80
4509;DHT22;2267;48.816;9.230;2023-04-19T10:31:03;14.80;99.20
4509;DHT22;2267;48.816;9.230;2023-04-19T10:33:35;14.80;99.30
4509;DHT22;2267;48.816;9.230;2023-04-19T10:36:03;14.80;99.00
4509;DHT22;2267;48.816;9.230;2023-04-19T10:38:46;14.70;99.20
4509;DHT22;2267;48.816;9.230;2023-04-19T10:41:14;14.70;99.10
4509;DHT22;2267;48.816;9.230;2023-04-19T10:44:10;14.60;99.30
4509;DHT22;2267;48.816;9.230;2023-04-19T10:46:39;14.60;99.50
4509;DHT22;2267;48.816;9.230;2023-04-19T10:49:07;14.60;99.60
4509;DHT22;2267;48.816;9.230;2023-04-19T10:51:36;14.60;99.70
4509;DHT22;2267;48.816;9.230;2023-04-19T10:54:33;14.60;99.70
4509;DHT22;2267;48.816;9.230;2023-04-19T10:57:09;14.70;99.70
4509;DHT22;2267;48.816;9.230;2023-04-19T10:59:38;14.60;99.80
4509;DHT22;2267;48.816;9.230;2023-04-19T11:07:15;14.60;99.80
4509;DHT22;2267;48.816;9.230;2023-04-19T11:09:44;14.60;99.90
4509;DHT22;2267;48.816;9.230;2023-04-19T11:14:47;14.50;99.90
4509;DHT22;2267;48.816;9.230;2023-04-19T11:17:19;14.50;99.90
4509;DHT22;2267;48.816;9.230;2023-04-19T11:19:57;14.40;99.90
4509;DHT22;2267;48.816;9.230;2023-04-19T11:22:44;14.40;99.90
4509;DHT22;2267;48.816;9.230;2023-04-19T11:25:15;14.30;99.90
4509;DHT22;2267;48.816;9.230;2023-04-19T11:27:44;14.30;99.90
4509;DHT22;2267;48.816;9.230;2023-04-19T11:30:15;14.20;99.90
4509;DHT22;2267;48.816;9.230;2023-04-19T11:32:47;14.20;99.90
4509;DHT22;2267;48.816;9.230;2023-04-19T11:35:27;14.20;99.90
4509;DHT22;2267;48.816;9.230;2023-04-19T11:37:55;14.10;99.90
4509;DHT22;2267;48.816;9.230;2023-04-19T11:40:23;14.10;99.90
4509;DHT22;2267;48.816;9.230;2023-04-19T11:42:57;14.00;99.90
4509;DHT22;2267;48.816;9.230;2023-04-19T11:45:34;14.00;99.90
4509;DHT22;2267;48.816;9.230;2023-04-19T11:48:06;14.00;99.90
4509;DHT22;2267;48.816;9.230;2023-04-19T11:50:40;14.00;99.90
4509;DHT22;2267;48.816;9.230;2023-04-19T11:55:45;13.90;99.90
4509;DHT22;2267;48.816;9.230;2023-04-19T11:58:36;13.80;99.90
4509;DHT22;2267;48.816;9.230;2023-04-19T12:03:39;13.80;99.90
4509;DHT22;2267;48.816;9.230;2023-04-19T12:06:11;13.80;99.90
4509;DHT22;2267;48.816;9.230;2023-04-19T12:08:41;13.80;99.90
4509;DHT22;2267;48.816;9.230;2023-04-19T12:11:09;13.70;99.90
4509;DHT22;2267;48.816;9.230;2023-04-19T12:13:35;13.70;99.90
4509;DHT22;2267;48.816;9.230;2023-04-19T12:16:02;13.70;99.90
4509;DHT22;2267;48.816;9.230;2023-04-19T12:18:47;13.70;99.90
4509;DHT22;2267;48.816;9.230;2023-04-19T12:21:27;13.70;99.90
4509;DHT22;2267;48.816;9.230;2023-04-19T12:23:58;13.70;99.90
4509;DHT22;2267;48.816;9.230;2023-04-19T12:26:29;13.60;99.90
4509;DHT22;2267;48.816;9.230;2023-04-19T12:29:00;13.60;99.90
4509;DHT22;2267;48.816;9.230;2023-04-19T12:31:27;13.50;99.90
4509;DHT22;2267;48.816;9.230;2023-04-19T12:33:54;13.50;99.90
4509;DHT22;2267;48.816;9.230;2023-04-19T12:36:21;13.50;99.90
4509;DHT22;2267;48.816;9.230;2023-04-19T12:38:48;13.40;99.90
4509;DHT22;2267;48.816;9.230;2023-04-19T12:41:14;13.40;99.90
4509;DHT22;2267;48.816;9.230;2023-04-19T12:43:41;13.40;99.90
4509;DHT22;2267;48.816;9.230;2023-04-19T12:46:08;13.40;99.90
4509;DHT22;2267;48.816;9.230;2023-04-19T12:48:35;13.40;99.90
4509;DHT22;2267;48.816;9.230;2023-04-19T12:51:02;13.40;99.90
4509;DHT22;2267;48.816;9.230;2023-04-19T12:53:29;13.30;99.90
4509;DHT22;2267;48.816;9.230;2023-04-19T12:55:57;13.20;99.90
4509;DHT22;2267;48.816;9.230;2023-04-19T12:58:24;13.20;99.90
4509;DHT22;2267;48.816;9.230;2023-04-19T13:00:50;13.20;99.90
4509;DHT22;2267;48.816;9.230;2023-04-19T13:03:17;13.20;99.90
4509;DHT22;2267;48.816;9.230;2023-04-19T13:05:44;13.20;99.90
4509;DHT22;2267;48.816;9.230;2023-04-19T13:08:11;13.20;99.90
4509;DHT22;2267;48.816;9.230;2023-04-19T13:10:38;13.20;99.90
4509;DHT22;2267;48.816;9.230;2023-04-19T13:13:05;13.10;99.90
4509;DHT22;2267;48.816;9.230;2023-04-19T13:15:32;13.20;99.90
4509;DHT22;2267;48.816;9.230;2023-04-19T13:17:58;13.10;99.90
4509;DHT22;2267;48.816;9.230;2023-04-19T13:20:25;13.10;99.90
4509;DHT22;2267;48.816;9.230;2023-04-19T13:22:52;13.10;99.90
4509;DHT22;2267;48.816;9.230;2023-04-19T13:25:19;13.10;99.90
4509;DHT22;2267;48.816;9.230;2023-04-19T13:27:45;13.00;99.90
4509;DHT22;2267;48.816;9.230;2023-04-19T13:30:13;13.00;99.90
4509;DHT22;2267;48.816;9.230;2023-04-19T13:32:39;13.10;99.90
4509;DHT22;2267;48.816;9.230;2023-04-19T13:35:06;13.10;99.90
4509;DHT22;2267;48.816;9.230;2023-04-19T13:37:33;13.10;99.90
4509;DHT22;2267;48.816;9.230;2023-04-19T13:40:00;13.10;99.90
4509;DHT22;2267;48.816;9.230;2023-04-19T13:42:43;13.10;99.90
4509;DHT22;2267;48.816;9.230;2023-04-19T13:45:11;13.10;99.90
4509;DHT22;2267;48.816;9.230;2023-04-19T13:47:37;13.10;99.90
4509;DHT22;2267;48.816;9.230;2023-04-19T13:50:05;13.10;99.90
4509;DHT22;2267;48.816;9.230;2023-04-19T13:52:32;13.10;99.90
4509;DHT22;2267;48.816;9.230;2023-04-19T13:54:58;13.10;99.90
4509;DHT22;2267;48.816;9.230;2023-04-19T13:57:25;13.10;99.90
4509;DHT22;2267;48.816;9.230;2023-04-19T13:59:52;13.10;99.90
4509;DHT22;2267;48.816;9.230;2023-04-19T14:02:19;13.10;99.90
4509;DHT22;2267;48.816;9.230;2023-04-19T14:04:46;13.10;99.90
4509;DHT22;2267;48.816;9.230;2023-04-19T14:07:13;13.10;99.90
4509;DHT22;2267;48.816;9.230;2023-04-19T14:09:40;13.20;99.90
4509;DHT22;2267;48.816;9.230;2023-04-19T14:12:08;13.20;99.90
4509;DHT22;2267;48.816;9.230;2023-04-19T14:14:35;13.20;99.90
4509;DHT22;2267;48.816;9.230;2023-04-19T14:17:01;13.30;99.90
4509;DHT22;2267;48.816;9.230;2023-04-19T14:19:28;13.30;99.90
4509;DHT22;2267;48.816;9.230;2023-04-19T14:21:55;13.40;99.90
4509;DHT22;2267;48.816;9.230;2023-04-19T14:24:22;13.40;99.90
4509;DHT22;2267;48.816;9.230;2023-04-19T14:26:49;13.50;99.90
4509;DHT22;2267;48.816;9.230;2023-04-19T14:29:35;13.70;99.90
4509;DHT22;2267;48.816;9.230;2023-04-19T14:32:02;13.70;99.90
4509;DHT22;2267;48.816;9.230;2023-04-19T14:34:49;13.80;99.90
4509;DHT22;2267;48.816;9.230;2023-04-19T14:37:17;13.90;99.90
4509;DHT22;2267;48.816;9.230;2023-04-19T14:39:45;13.90;99.90
4509;DHT22;2267;48.816;9.230;2023-04-19T14:42:11;14.00;99.90
4509;DHT22;2267;48.816;9.230;2023-04-19T14:44:39;14.00;99.90
4509;DHT22;2267;48.816;9.230;2023-04-19T14:47:06;14.00;99.90
4509;DHT22;2267;48.816;9.230;2023-04-19T14:49:33;14.00;99.90
4509;DHT22;2267;48.816;9.230;2023-04-19T14:52:00;14.00;99.90
4509;DHT22;2267;48.816;9.230;2023-04-19T14:54:26;14.00;99.90
4509;DHT22;2267;48.816;9.230;2023-04-19T14:56:53;13.90;99.90
4509;DHT22;2267;48.816;9.230;2023-04-19T14:59:20;13.80;99.90
4509;DHT22;2267;48.816;9.230;2023-04-19T15:01:47;13.80;99.90
4509;DHT22;2267;48.816;9.230;2023-04-19T15:04:14;13.70;99.90
4509;DHT22;2267;48.816;9.230;2023-04-19T15:06:42;13.70;99.90
4509;DHT22;2267;48.816;9.230;2023-04-19T15:09:08;13.70;99.90
4509;DHT22;2267;48.816;9.230;2023-04-19T15:11:35;13.70;99.90
4509;DHT22;2267;48.816;9.230;2023-04-19T15:14:02;13.70;99.90
4509;DHT22;2267;48.816;9.230;2023-04-19T15:16:29;13.80;99.90
4509;DHT22;2267;48.816;9.230;2023-04-19T15:18:56;13.80;99.90
4509;DHT22;2267;48.816;9.230;2023-04-19T15:21:23;13.70;99.90
4509;DHT22;2267;48.816;9.230;2023-04-19T15:23:50;13.70;99.90
4509;DHT22;2267;48.816;9.230;2023-04-19T15:26:17;13.70;99.90
4509;DHT22;2267;48.816;9.230;2023-04-19T15:28:44;13.70;99.90
4509;DHT22;2267;48.816;9.230;2023-04-19T15:31:11;13.80;99.90
4509;DHT22;2267;48.816;9.230;2023-04-19T15:33:38;13.80;99.90
4509;DHT22;2267;48.816;9.230;2023-04-19T15:36:05;13.90;99.90
4509;DHT22;2267;48.816;9.230;2023-04-19T15:38:32;14.00;99.90
4509;DHT22;2267;48.816;9.230;2023-04-19T15:40:59;14.10;99.90
4509;DHT22;2267;48.816;9.230;2023-04-19T15:43:27;14.10;99.90
4509;DHT22;2267;48.816;9.230;2023-04-19T15:45:54;14.20;99.90
4509;DHT22;2267;48.816;9.230;2023-04-19T15:48:21;14.30;99.90
4509;DHT22;2267;48.816;9.230;2023-04-19T15:50:48;14.30;99.90
4509;DHT22;2267;48.816;9.230;2023-04-19T15:53:15;14.30;99.90
4509;DHT22;2267;48.816;9.230;2023-04-19T15:55:42;14.30;99.90
4509;DHT22;2267;48.816;9.230;2023-04-19T15:58:09;14.30;99.90
4509;DHT22;2267;48.816;9.230;2023-04-19T16:00:36;14.30;99.90
4509;DHT22;2267;48.816;9.230;2023-04-19T16:03:03;14.30;99.90
4509;DHT22;2267;48.816;9.230;2023-04-19T16:05:30;14.20;99.90
4509;DHT22;2267;48.816;9.230;2023-04-19T16:08:01;14.20;99.90
4509;DHT22;2267;48.816;9.230;2023-04-19T16:10:29;14.10;99.90
4509;DHT22;2267;48.816;9.230;2023-04-19T16:12:55;14.00;99.90
4509;DHT22;2267;48.816;9.230;2023-04-19T16:15:22;14.00;99.90
4509;DHT22;2267;48.816;9.230;2023-04-19T16:17:50;14.00;99.90
4509;DHT22;2267;48.816;9.230;2023-04-19T16:20:18;13.90;99.90
4509;DHT22;2267;48.816;9.230;2023-04-19T16:22:46;14.00;99.90
4509;DHT22;2267;48.816;9.230;2023-04-19T16:25:14;14.00;99.90